Map

Track Data

SID SEASON NUMBER BASIN SUBBASIN NAME ISO_TIME NATURE LAT LON WMO_WIND WMO_PRES WMO_AGENCY TRACK_TYPE DIST2LAND LANDFALL IFLAG USA_AGENCY USA_ATCF_ID USA_LAT USA_LON USA_RECORD USA_STATUS USA_WIND USA_PRES USA_SSHS USA_R34_NE USA_R34_SE USA_R34_SW USA_R34_NW USA_R50_NE USA_R50_SE USA_R50_SW USA_R50_NW USA_R64_NE USA_R64_SE USA_R64_SW USA_R64_NW USA_POCI USA_ROCI USA_RMW USA_EYE TOKYO_LAT TOKYO_LON TOKYO_GRADE TOKYO_WIND TOKYO_PRES TOKYO_R50_DIR TOKYO_R50_LONG TOKYO_R50_SHORT TOKYO_R30_DIR TOKYO_R30_LONG TOKYO_R30_SHORT TOKYO_LAND CMA_LAT CMA_LON CMA_CAT CMA_WIND CMA_PRES HKO_LAT HKO_LON HKO_CAT HKO_WIND HKO_PRES NEWDELHI_LAT NEWDELHI_LON NEWDELHI_GRADE NEWDELHI_WIND NEWDELHI_PRES NEWDELHI_CI NEWDELHI_DP NEWDELHI_POCI REUNION_LAT REUNION_LON REUNION_TYPE REUNION_WIND REUNION_PRES REUNION_TNUM REUNION_CI REUNION_RMW REUNION_R34_NE REUNION_R34_SE REUNION_R34_SW REUNION_R34_NW REUNION_R50_NE REUNION_R50_SE REUNION_R50_SW REUNION_R50_NW REUNION_R64_NE REUNION_R64_SE REUNION_R64_SW REUNION_R64_NW BOM_LAT BOM_LON BOM_TYPE BOM_WIND BOM_PRES BOM_TNUM BOM_CI BOM_RMW BOM_R34_NE BOM_R34_SE BOM_R34_SW BOM_R34_NW BOM_R50_NE BOM_R50_SE BOM_R50_SW BOM_R50_NW BOM_R64_NE BOM_R64_SE BOM_R64_SW BOM_R64_NW BOM_ROCI BOM_POCI BOM_EYE BOM_POS_METHOD BOM_PRES_METHOD NADI_LAT NADI_LON NADI_CAT NADI_WIND NADI_PRES WELLINGTON_LAT WELLINGTON_LON WELLINGTON_WIND WELLINGTON_PRES DS824_LAT DS824_LON DS824_STAGE DS824_WIND DS824_PRES TD9636_LAT TD9636_LON TD9636_STAGE TD9636_WIND TD9636_PRES TD9635_LAT TD9635_LON TD9635_WIND TD9635_PRES TD9635_ROCI NEUMANN_LAT NEUMANN_LON NEUMANN_CLASS NEUMANN_WIND NEUMANN_PRES MLC_LAT MLC_LON MLC_CLASS MLC_WIND MLC_PRES USA_GUST BOM_GUST BOM_GUST_PER REUNION_GUST REUNION_GUST_PER USA_SEAHGT USA_SEARAD_NE USA_SEARAD_SE USA_SEARAD_SW USA_SEARAD_NW STORM_SPEED STORM_DIR
1918210N20119 1918 43 WP MM NOT_NAMED 1918-07-28 22:00:00 NR 20.3000 119.000 main 251 243 __________O___ -1 20.3000 119.000 4 4 329
1918210N20119 1918 43 WP MM NOT_NAMED 1918-07-29 00:00:00 NR 20.4178 118.922 main 250 243 __________P___ -1 20.4178 118.922 4 4 328
1918210N20119 1918 43 WP MM NOT_NAMED 1918-07-29 03:00:00 NR 20.5940 118.803 main 244 238 __________P___ -1 20.5940 118.803 4 4 327
1918210N20119 1918 43 WP MM NOT_NAMED 1918-07-29 06:00:00 NR 20.7691 118.679 main 240 240 __________P___ -1 20.7691 118.679 4 4 325
1918210N20119 1918 43 WP MM NOT_NAMED 1918-07-29 09:00:00 NR 20.9426 118.547 main 253 248 __________P___ -1 20.9426 118.547 4 4 324
1918210N20119 1918 43 WP MM NOT_NAMED 1918-07-29 10:00:00 NR 21.0000 118.500 main 248 242 __________O___ -1 21.0000 118.500 4 4 322
1918210N20119 1918 43 WP MM NOT_NAMED 1918-07-29 12:00:00 NR 21.1141 118.403 main 250 244 __________P___ -1 21.1141 118.403 4 4 321
1918210N20119 1918 43 WP MM NOT_NAMED 1918-07-29 15:00:00 NR 21.2851 118.251 main 246 227 __________P___ -1 21.2851 118.251 4 4 320
1918210N20119 1918 43 WP MM NOT_NAMED 1918-07-29 18:00:00 NR 21.4588 118.097 main 227 204 __________P___ -1 21.4588 118.097 4 5 321
1918210N20119 1918 43 WP MM NOT_NAMED 1918-07-29 21:00:00 NR 21.6383 117.948 main 204 196 __________P___ -1 21.6383 117.948 4 5 323
1918210N20119 1918 43 WP MM NOT_NAMED 1918-07-29 22:00:00 NR 21.7000 117.900 main 196 181 __________O___ -1 21.7000 117.900 4 5 326
1918210N20119 1918 43 WP MM NOT_NAMED 1918-07-30 00:00:00 NR 21.8249 117.813 main 181 159 __________P___ -1 21.8249 117.813 4 5 329
1918210N20119 1918 43 WP MM NOT_NAMED 1918-07-30 03:00:00 NR 22.0186 117.690 main 159 137 __________P___ -1 22.0186 117.690 4 5 330
1918210N20119 1918 43 WP MM NOT_NAMED 1918-07-30 06:00:00 NR 22.2199 117.569 main 137 107 __________P___ -1 22.2199 117.569 4 5 331
1918210N20119 1918 43 WP MM NOT_NAMED 1918-07-30 09:00:00 NR 22.4287 117.444 main 107 102 __________P___ -1 22.4287 117.444 4 5 331
1918210N20119 1918 43 WP MM NOT_NAMED 1918-07-30 10:00:00 NR 22.5000 117.400 main 102 88 __________O___ -1 22.5000 117.400 4 5 330
1918210N20119 1918 43 WP MM NOT_NAMED 1918-07-30 12:00:00 NR 22.6450 117.309 main 88 60 __________P___ -1 22.6450 117.309 4 5 330
1918210N20119 1918 43 WP MM NOT_NAMED 1918-07-30 15:00:00 NR 22.8675 117.163 main 60 30 __________P___ -1 22.8675 117.163 4 5 329
1918210N20119 1918 43 WP MM NOT_NAMED 1918-07-30 18:00:00 NR 23.0942 117.010 main 30 10 __________P___ -1 23.0942 117.010 4 5 328
1918210N20119 1918 43 WP MM NOT_NAMED 1918-07-30 21:00:00 NR 23.3234 116.853 main 10 0 __________P___ -1 23.3234 116.853 4 5 327
1918210N20119 1918 43 WP MM NOT_NAMED 1918-07-30 22:00:00 NR 23.4000 116.800 main 0 __________O___ -1 23.4000 116.800 4 5 322

Digital Typhoon Data and Search

About IBTrACS Database

This database is a web-friendly format of International Best Track Archive for Climate Stewardship (IBTrACS), a global best track data archive curated by NOAA dating back to 1842.

Updated: 2021-10-25